createdAt,value
2018-03-23T00:01:04.624Z,43.17
2018-03-23T00:03:33.613Z,42.28
2018-03-23T00:06:02.540Z,42.65
2018-03-23T00:08:30.573Z,44.50
2018-03-23T00:10:59.053Z,42.47
2018-03-23T00:13:28.106Z,43.63
2018-03-23T00:15:57.123Z,43.17
2018-03-23T00:18:25.378Z,42.92
2018-03-23T00:20:56.077Z,43.30
2018-03-23T00:23:28.804Z,43.22
2018-03-23T00:25:59.075Z,40.67
2018-03-23T00:28:32.939Z,41.97
2018-03-23T00:31:01.939Z,42.00
2018-03-23T00:33:29.970Z,42.25
2018-03-23T00:35:59.017Z,41.47
2018-03-23T00:38:27.091Z,41.88
2018-03-23T00:40:55.021Z,42.65
2018-03-23T00:43:23.717Z,43.50
2018-03-23T00:45:51.993Z,42.50
2018-03-23T00:48:20.091Z,42.33
2018-03-23T00:50:48.020Z,42.40
2018-03-23T00:53:16.057Z,42.53
2018-03-23T00:55:44.287Z,42.97
2018-03-23T00:58:12.138Z,43.33
2018-03-23T01:00:40.506Z,43.80
2018-03-23T01:03:09.498Z,43.53
2018-03-23T01:05:38.301Z,43.97
2018-03-23T01:08:06.157Z,44.38
2018-03-23T01:10:34.767Z,44.70
2018-03-23T01:13:02.816Z,45.12
2018-03-23T01:15:30.654Z,45.17
2018-03-23T01:17:58.636Z,46.05
2018-03-23T01:20:27.441Z,45.53
2018-03-23T01:22:55.383Z,45.20
2018-03-23T01:25:24.293Z,45.70
2018-03-23T01:27:53.046Z,45.95
2018-03-23T01:30:20.933Z,46.47
2018-03-23T01:32:49.802Z,46.67
2018-03-23T01:35:17.693Z,44.45
2018-03-23T01:37:46.499Z,45.60
2018-03-23T01:40:14.522Z,44.50
2018-03-23T01:42:42.637Z,45.17
2018-03-23T01:45:38.050Z,45.38
2018-03-23T01:48:06.032Z,45.03
2018-03-23T01:50:33.956Z,44.72
2018-03-23T01:53:02.585Z,44.25
2018-03-23T01:55:30.453Z,44.83
2018-03-23T01:57:58.766Z,44.65
2018-03-23T02:00:26.579Z,43.97
2018-03-23T02:02:54.411Z,43.55
2018-03-23T02:05:23.142Z,44.38
2018-03-23T02:07:51.004Z,44.15
2018-03-23T02:10:18.835Z,43.50
2018-03-23T02:12:47.546Z,42.42
2018-03-23T02:15:15.446Z,45.12
2018-03-23T02:17:43.471Z,43.87
2018-03-23T02:20:12.270Z,45.20
2018-03-23T02:22:40.234Z,45.38
2018-03-23T02:25:08.164Z,43.87
2018-03-23T02:27:36.261Z,45.28
2018-03-23T02:30:05.047Z,45.42
2018-03-23T02:32:33.912Z,45.22
2018-03-23T02:35:01.732Z,45.17
2018-03-23T02:37:29.598Z,46.33
2018-03-23T02:39:57.409Z,44.67
2018-03-23T02:42:26.248Z,46.50
2018-03-23T02:44:54.389Z,45.83
2018-03-23T02:47:23.003Z,46.45
2018-03-23T02:49:50.984Z,46.55
2018-03-23T02:52:18.847Z,46.40
2018-03-23T02:54:46.657Z,45.40
2018-03-23T02:57:14.537Z,45.10
2018-03-23T02:59:43.195Z,46.28
2018-03-23T03:02:11.091Z,46.55
2018-03-23T03:04:39.954Z,47.33
2018-03-23T03:07:08.019Z,45.08
2018-03-23T03:09:36.079Z,46.17
2018-03-23T03:12:03.979Z,46.17
2018-03-23T03:14:33.102Z,45.80
2018-03-23T03:17:01.239Z,45.60
2018-03-23T03:19:30.576Z,45.70
2018-03-23T03:21:58.458Z,45.65
2018-03-23T03:24:26.242Z,45.90
2018-03-23T03:26:54.095Z,45.12
2018-03-23T03:29:22.190Z,45.12
2018-03-23T03:31:50.150Z,44.22
2018-03-23T03:34:18.128Z,45.10
2018-03-23T03:36:45.989Z,45.12
2018-03-23T03:39:13.806Z,45.30
2018-03-23T03:41:41.628Z,45.47
2018-03-23T03:44:09.610Z,46.20
2018-03-23T03:46:37.748Z,45.40
2018-03-23T03:49:05.879Z,44.50
2018-03-23T03:51:34.872Z,44.20
2018-03-23T03:54:04.030Z,45.10
2018-03-23T03:56:31.878Z,46.17
2018-03-23T03:59:00.167Z,44.40
2018-03-23T04:01:28.566Z,45.90
2018-03-23T04:03:56.367Z,44.00
2018-03-23T04:06:24.250Z,44.38
2018-03-23T04:08:52.121Z,43.50
2018-03-23T04:11:20.207Z,44.53
2018-03-23T04:13:48.200Z,43.40
2018-03-23T04:16:16.380Z,42.58
2018-03-23T04:18:45.054Z,44.00
2018-03-23T04:21:12.949Z,43.65
2018-03-23T04:23:40.904Z,42.78
2018-03-23T04:26:09.724Z,42.80
2018-03-23T04:28:38.627Z,44.88
2018-03-23T04:31:06.618Z,43.87
2018-03-23T04:33:34.774Z,43.40
2018-03-23T04:36:02.769Z,44.80
2018-03-23T04:38:30.746Z,44.83
2018-03-23T04:40:58.699Z,43.17
2018-03-23T04:43:26.932Z,43.83
2018-03-23T04:45:55.134Z,43.40
2018-03-23T04:48:23.116Z,44.38
2018-03-23T04:50:51.391Z,43.72
2018-03-23T04:53:19.207Z,44.03
2018-03-23T04:55:47.020Z,44.20
2018-03-23T04:58:14.834Z,43.05
2018-03-23T05:00:42.754Z,43.17
2018-03-23T05:03:10.701Z,42.92
2018-03-23T05:05:38.749Z,44.95
2018-03-23T05:08:06.769Z,46.47
2018-03-23T05:10:34.839Z,44.00
2018-03-23T05:13:02.772Z,42.40
2018-03-23T05:15:30.756Z,43.35
2018-03-23T05:17:58.722Z,43.15
2018-03-23T05:20:26.707Z,43.17
2018-03-23T05:22:54.580Z,43.00
2018-03-23T05:25:22.406Z,44.90
2018-03-23T05:27:50.240Z,43.42
2018-03-23T05:30:18.901Z,42.70
2018-03-23T05:32:46.816Z,43.92
2018-03-23T05:35:14.680Z,43.42
2018-03-23T05:37:45.988Z,47.28
2018-03-23T05:40:13.932Z,43.85
2018-03-23T05:42:41.862Z,44.60
2018-03-23T05:45:09.767Z,43.83
2018-03-23T05:47:37.698Z,43.63
2018-03-23T05:50:05.606Z,43.67
2018-03-23T05:52:33.494Z,43.87
2018-03-23T05:55:02.257Z,43.03
2018-03-23T05:57:30.234Z,43.42
2018-03-23T05:59:58.177Z,42.33
2018-03-23T06:02:26.274Z,41.28
2018-03-23T06:04:54.191Z,43.55
2018-03-23T06:07:22.096Z,41.83
2018-03-23T06:09:50.796Z,41.42
2018-03-23T06:12:18.706Z,40.03
2018-03-23T06:14:46.635Z,41.75
2018-03-23T06:17:14.444Z,42.35
2018-03-23T06:19:42.301Z,42.70
2018-03-23T06:22:10.179Z,42.33
2018-03-23T06:24:37.979Z,42.30
2018-03-23T06:27:05.808Z,44.78
2018-03-23T06:29:33.764Z,43.63
2018-03-23T06:32:01.550Z,42.67
2018-03-23T06:34:29.436Z,41.72
2018-03-23T06:36:58.032Z,41.83
2018-03-23T06:39:25.866Z,41.85
2018-03-23T06:41:53.865Z,42.95
2018-03-23T06:44:21.932Z,41.30
2018-03-23T06:46:50.091Z,42.62
2018-03-23T06:49:17.885Z,42.08
2018-03-23T06:51:45.711Z,42.72
2018-03-23T06:54:14.784Z,41.78
2018-03-23T06:56:42.653Z,41.60
2018-03-23T06:59:10.592Z,41.15
2018-03-23T07:01:39.411Z,41.88
2018-03-23T07:04:07.356Z,40.95
2018-03-23T07:06:36.372Z,42.88
2018-03-23T07:09:04.356Z,43.75
2018-03-23T07:11:32.182Z,41.10
2018-03-23T07:14:01.096Z,41.80
2018-03-23T07:16:29.069Z,41.60
2018-03-23T07:18:57.037Z,41.20
2018-03-23T07:21:24.938Z,41.78
2018-03-23T07:23:53.086Z,39.95
2018-03-23T07:26:20.934Z,40.63
2018-03-23T07:28:48.856Z,41.60
2018-03-23T07:31:17.031Z,41.75
2018-03-23T07:33:44.882Z,41.03
2018-03-23T07:36:12.707Z,41.95
2018-03-23T07:38:40.574Z,42.60
2018-03-23T07:41:08.607Z,41.70
2018-03-23T07:43:36.519Z,42.03
2018-03-23T07:46:04.433Z,41.47
2018-03-23T07:48:33.073Z,41.50
2018-03-23T07:51:00.888Z,41.70
2018-03-23T07:53:29.450Z,41.95
2018-03-23T07:55:57.261Z,42.10
2018-03-23T07:58:25.014Z,41.72
2018-03-23T08:00:53.846Z,42.53
2018-03-23T08:03:21.694Z,42.40
2018-03-23T08:05:49.668Z,42.03
2018-03-23T08:08:17.506Z,41.70
2018-03-23T08:10:45.353Z,40.45
2018-03-23T08:13:14.001Z,41.60
2018-03-23T08:15:41.855Z,40.47
2018-03-23T08:18:09.728Z,40.50
2018-03-23T08:20:37.666Z,40.70
2018-03-23T08:23:05.587Z,40.63
2018-03-23T08:25:33.548Z,41.78
2018-03-23T08:28:01.397Z,40.28
2018-03-23T08:30:29.289Z,41.97
2018-03-23T08:32:57.141Z,41.10
2018-03-23T08:35:25.175Z,40.63
2018-03-23T08:37:53.029Z,41.00
2018-03-23T08:40:20.867Z,39.55
2018-03-23T08:42:49.663Z,39.75
2018-03-23T08:45:18.541Z,38.92
2018-03-23T08:47:46.671Z,41.37
2018-03-23T08:50:14.527Z,41.13
2018-03-23T08:52:42.553Z,40.78
2018-03-23T08:55:11.243Z,40.10
2018-03-23T08:57:40.510Z,39.65
2018-03-23T09:00:09.299Z,40.28
2018-03-23T09:02:38.506Z,41.47
2018-03-23T09:05:07.241Z,40.55
2018-03-23T09:07:36.650Z,41.83
2018-03-23T09:10:05.887Z,41.13
2018-03-23T09:12:34.018Z,40.17
2018-03-23T09:15:02.092Z,39.97
2018-03-23T09:17:30.111Z,41.90
2018-03-23T09:19:58.497Z,40.25
2018-03-23T09:22:27.259Z,40.40
2018-03-23T09:24:55.834Z,38.83
2018-03-23T09:27:23.730Z,39.50
2018-03-23T09:29:51.659Z,39.35
2018-03-23T09:32:19.981Z,38.97
2018-03-23T09:34:49.666Z,39.25
2018-03-23T09:37:19.272Z,39.17
2018-03-23T09:40:17.392Z,39.53
2018-03-23T09:42:45.404Z,40.33
2018-03-23T09:45:13.575Z,38.88
2018-03-23T09:47:41.632Z,39.17
2018-03-23T09:50:09.616Z,39.63
2018-03-23T09:52:37.548Z,41.20
2018-03-23T09:55:05.560Z,39.38
2018-03-23T09:57:33.555Z,40.15
2018-03-23T10:00:02.390Z,40.40
2018-03-23T10:02:30.215Z,39.10
2018-03-23T10:04:59.258Z,38.20
2018-03-23T10:07:27.348Z,39.42
2018-03-23T10:09:55.274Z,39.10
2018-03-23T10:12:23.241Z,39.08
2018-03-23T10:14:51.979Z,38.47
2018-03-23T10:17:19.826Z,37.90
2018-03-23T10:19:47.764Z,38.10
2018-03-23T10:22:15.779Z,38.45
2018-03-23T10:24:43.627Z,38.72
2018-03-23T10:27:11.512Z,38.05
2018-03-23T10:29:40.077Z,37.90
2018-03-23T10:32:07.959Z,36.47
2018-03-23T10:34:35.895Z,36.88
2018-03-23T10:37:03.801Z,37.83
2018-03-23T10:39:31.678Z,37.90
2018-03-23T10:41:59.495Z,37.60
2018-03-23T10:44:27.353Z,38.70
2018-03-23T10:46:55.205Z,37.97
2018-03-23T10:49:23.082Z,38.58
2018-03-23T10:51:51.153Z,37.15
2018-03-23T10:54:19.023Z,36.95
2018-03-23T10:56:46.922Z,37.92
2018-03-23T10:59:14.714Z,37.45
2018-03-23T11:01:49.134Z,36.80
2018-03-23T11:04:18.084Z,38.58
2018-03-23T11:06:45.997Z,37.70
2018-03-23T11:09:14.852Z,38.08
2018-03-23T11:11:42.657Z,37.63
2018-03-23T11:14:11.510Z,37.90
2018-03-23T11:16:39.755Z,36.75
2018-03-23T11:19:07.723Z,37.22
2018-03-23T11:21:35.596Z,37.20
2018-03-23T11:24:03.455Z,37.70
2018-03-23T11:26:31.517Z,38.28
2018-03-23T11:28:59.432Z,38.13
2018-03-23T11:31:27.361Z,39.08
2018-03-23T11:33:55.223Z,36.95
2018-03-23T11:36:23.032Z,37.78
2018-03-23T11:38:50.863Z,37.83
2018-03-23T11:41:18.770Z,38.17
2018-03-23T11:43:46.687Z,38.17
2018-03-23T11:46:14.497Z,37.90
2018-03-23T11:48:42.288Z,37.58
2018-03-23T11:51:10.981Z,38.15
2018-03-23T11:53:39.051Z,38.53
2018-03-23T11:56:06.887Z,37.70
2018-03-23T11:58:34.778Z,37.65
2018-03-23T12:01:03.378Z,36.30
2018-03-23T12:03:31.355Z,37.20
2018-03-23T12:05:59.203Z,38.17
2018-03-23T12:08:27.223Z,40.40
2018-03-23T12:10:55.099Z,38.38
2018-03-23T12:13:23.319Z,34.13
2018-03-23T12:15:51.209Z,32.70
2018-03-23T12:18:19.102Z,35.80
2018-03-23T12:20:52.897Z,36.08
2018-03-23T12:23:20.980Z,36.60
2018-03-23T12:25:48.848Z,37.70
2018-03-23T12:28:16.631Z,36.75
2018-03-23T12:30:45.309Z,39.80
2018-03-23T12:33:13.889Z,39.53
2018-03-23T12:35:41.662Z,38.17
2018-03-23T12:38:10.200Z,38.95
2018-03-23T12:40:38.034Z,37.95
2018-03-23T12:43:05.847Z,37.00
2018-03-23T12:45:33.725Z,38.25
2018-03-23T12:48:02.371Z,34.00
2018-03-23T12:50:30.313Z,36.08
2018-03-23T12:52:58.324Z,36.42
2018-03-23T12:55:26.125Z,37.55
2018-03-23T12:57:56.110Z,38.30
2018-03-23T13:00:24.370Z,34.88
2018-03-23T13:02:52.147Z,36.28
2018-03-23T13:05:20.221Z,57.47
2018-03-23T13:07:48.146Z,35.58
2018-03-23T13:10:16.005Z,37.05
2018-03-23T13:12:43.831Z,37.35
2018-03-23T13:15:11.681Z,37.92
2018-03-23T13:17:39.729Z,39.97
2018-03-23T13:20:07.614Z,38.88
2018-03-23T13:22:35.497Z,41.80
2018-03-23T13:25:03.687Z,40.28
2018-03-23T13:27:32.387Z,40.85
2018-03-23T13:30:01.114Z,41.13
2018-03-23T13:32:29.884Z,41.05
2018-03-23T13:34:57.729Z,39.45
2018-03-23T13:37:26.439Z,40.60
2018-03-23T13:39:54.312Z,38.85
2018-03-23T13:42:22.100Z,40.08
2018-03-23T13:44:49.993Z,40.67
2018-03-23T13:47:18.655Z,40.35
2018-03-23T13:49:47.499Z,39.40
2018-03-23T13:52:15.440Z,40.38
2018-03-23T13:54:43.272Z,40.03
2018-03-23T13:57:11.160Z,39.20
2018-03-23T13:59:45.809Z,39.80
2018-03-23T14:02:13.594Z,40.10
2018-03-23T14:04:41.915Z,40.45
2018-03-23T14:07:09.771Z,39.85
2018-03-23T14:09:37.662Z,40.28
2018-03-23T14:12:06.247Z,38.75
2018-03-23T14:14:34.838Z,40.88
2018-03-23T14:17:03.473Z,40.45
2018-03-23T14:19:31.243Z,40.25
2018-03-23T14:21:59.082Z,38.78
2018-03-23T14:24:26.861Z,39.03
2018-03-23T14:26:54.886Z,38.80
2018-03-23T14:29:23.448Z,39.53
2018-03-23T14:31:51.317Z,39.58
2018-03-23T14:34:19.112Z,38.97
2018-03-23T14:36:47.749Z,40.40
2018-03-23T14:39:15.611Z,41.10
2018-03-23T14:41:43.539Z,38.75
2018-03-23T14:44:11.476Z,39.75
2018-03-23T14:46:40.211Z,40.70
2018-03-23T14:49:08.167Z,41.65
2018-03-23T14:51:36.163Z,42.62
2018-03-23T14:54:05.330Z,40.03
2018-03-23T14:56:33.276Z,43.28
2018-03-23T14:59:06.950Z,43.95
2018-03-23T15:01:34.797Z,43.00
2018-03-23T15:04:02.628Z,41.65
2018-03-23T15:06:30.476Z,42.70
2018-03-23T15:08:58.393Z,40.45
2018-03-23T15:11:26.267Z,42.28
2018-03-23T15:13:54.231Z,42.75
2018-03-23T15:16:22.098Z,43.83
2018-03-23T15:18:50.022Z,41.95
2018-03-23T15:21:17.938Z,41.40
2018-03-23T15:23:45.939Z,40.58
2018-03-23T15:26:14.629Z,40.35
2018-03-23T15:28:43.203Z,42.08
2018-03-23T15:31:11.720Z,43.40
2018-03-23T15:33:39.583Z,42.62
2018-03-23T15:36:07.382Z,41.45
2018-03-23T15:38:35.566Z,42.58
2018-03-23T15:41:03.487Z,43.78
2018-03-23T15:43:31.497Z,45.70
2018-03-23T15:45:59.534Z,41.97
2018-03-23T15:48:27.365Z,41.65
2018-03-23T15:50:57.165Z,43.15
2018-03-23T15:53:25.791Z,42.03
2018-03-23T15:55:54.546Z,41.95
2018-03-23T15:58:22.603Z,42.90
2018-03-23T16:00:51.410Z,42.55
2018-03-23T16:03:20.402Z,42.53
2018-03-23T16:05:48.574Z,42.78
2018-03-23T16:08:16.498Z,42.20
2018-03-23T16:10:44.515Z,43.80
2018-03-23T16:13:12.444Z,41.83
2018-03-23T16:15:40.560Z,42.17
2018-03-23T16:18:08.457Z,42.40
2018-03-23T16:20:36.382Z,43.58
2018-03-23T16:23:05.132Z,42.42
2018-03-23T16:25:33.257Z,43.25
2018-03-23T16:30:36.144Z,44.40
2018-03-23T16:33:04.164Z,42.38
2018-03-23T16:35:32.178Z,43.97
2018-03-23T16:38:00.735Z,43.08
2018-03-23T16:40:28.720Z,42.90
2018-03-23T16:42:57.484Z,43.05
2018-03-23T16:45:25.362Z,44.42
2018-03-23T16:47:53.274Z,42.60
2018-03-23T16:50:21.106Z,41.88
2018-03-23T16:52:50.184Z,44.30
2018-03-23T16:55:18.061Z,43.63
2018-03-23T16:57:46.041Z,42.80
2018-03-23T17:00:14.657Z,44.10
2018-03-23T17:02:42.522Z,43.20
2018-03-23T17:05:10.384Z,43.83
2018-03-23T17:07:38.332Z,42.83
2018-03-23T17:10:06.231Z,42.72
2018-03-23T17:12:34.123Z,43.72
2018-03-23T17:15:01.943Z,43.25
2018-03-23T17:17:29.793Z,43.95
2018-03-23T17:19:57.651Z,42.33
2018-03-23T17:22:26.279Z,41.97
2018-03-23T17:24:54.132Z,42.50
2018-03-23T17:27:22.005Z,43.63
2018-03-23T17:29:49.828Z,42.97
2018-03-23T17:32:17.865Z,42.28
2018-03-23T17:34:45.643Z,42.75
2018-03-23T17:37:13.453Z,43.33
2018-03-23T17:39:41.328Z,43.25
2018-03-23T17:42:09.346Z,44.80
2018-03-23T17:44:37.237Z,42.47
2018-03-23T17:47:05.147Z,42.70
2018-03-23T17:49:33.755Z,42.67
2018-03-23T17:52:01.566Z,42.35
2018-03-23T17:54:29.400Z,42.38
2018-03-23T17:56:58.082Z,42.47
2018-03-23T17:59:26.876Z,43.55
2018-03-23T18:01:55.503Z,41.70
2018-03-23T18:04:23.399Z,42.85
2018-03-23T18:06:51.173Z,43.83
2018-03-23T18:09:19.163Z,48.28
2018-03-23T18:11:47.812Z,42.75
2018-03-23T18:14:15.607Z,43.05
2018-03-23T18:16:44.258Z,43.30
2018-03-23T18:19:12.123Z,42.58
2018-03-23T18:21:39.955Z,42.70
2018-03-23T18:24:07.728Z,42.60
2018-03-23T18:26:35.865Z,42.90
2018-03-23T18:29:04.555Z,44.50
2018-03-23T18:31:33.166Z,43.10
2018-03-23T18:34:01.043Z,43.67
2018-03-23T18:36:28.898Z,41.65
2018-03-23T18:38:56.786Z,41.90
2018-03-23T18:41:24.541Z,43.17
2018-03-23T18:43:53.437Z,42.83
2018-03-23T18:46:21.579Z,43.97
2018-03-23T18:48:49.630Z,42.45
2018-03-23T18:51:17.887Z,42.45
2018-03-23T18:53:45.757Z,43.00
2018-03-23T18:56:14.556Z,41.47
2018-03-23T18:58:43.311Z,42.00
2018-03-23T19:01:11.074Z,44.17
2018-03-23T19:03:41.812Z,43.85
2018-03-23T19:06:09.598Z,43.25
2018-03-23T19:08:39.140Z,42.25
2018-03-23T19:11:07.208Z,42.15
2018-03-23T19:13:35.371Z,43.38
2018-03-23T19:16:03.286Z,42.92
2018-03-23T19:18:31.287Z,42.83
2018-03-23T19:20:59.903Z,43.05
2018-03-23T19:23:27.870Z,43.03
2018-03-23T19:25:55.698Z,44.00
2018-03-23T19:28:24.255Z,44.55
2018-03-23T19:30:52.086Z,44.00
2018-03-23T19:33:20.539Z,42.92
2018-03-23T19:35:49.111Z,43.50
2018-03-23T19:38:17.771Z,43.22
2018-03-23T19:40:45.630Z,47.45
2018-03-23T19:43:13.563Z,43.10
2018-03-23T19:45:41.558Z,44.90
2018-03-23T19:48:09.471Z,42.35
2018-03-23T19:50:38.013Z,43.30
2018-03-23T19:53:05.853Z,41.75
2018-03-23T19:55:33.856Z,43.28
2018-03-23T19:58:01.710Z,43.30
2018-03-23T20:00:29.687Z,43.15
2018-03-23T20:02:57.546Z,43.63
2018-03-23T20:05:25.357Z,43.42
2018-03-23T20:07:54.056Z,43.05
2018-03-23T20:10:21.940Z,42.53
2018-03-23T20:12:49.742Z,43.60
2018-03-23T20:15:17.603Z,45.10
2018-03-23T20:17:50.926Z,44.83
2018-03-23T20:20:25.272Z,44.35
2018-03-23T20:22:53.284Z,44.28
2018-03-23T20:25:21.100Z,43.72
2018-03-23T20:27:54.523Z,43.40
2018-03-23T20:30:22.383Z,43.00
2018-03-23T20:32:50.272Z,43.65
2018-03-23T20:35:18.081Z,42.05
2018-03-23T20:37:46.700Z,44.75
2018-03-23T20:40:14.569Z,43.78
2018-03-23T20:42:42.403Z,44.20
2018-03-23T20:45:10.217Z,44.25
2018-03-23T20:47:38.063Z,43.42
2018-03-23T20:50:05.900Z,43.22
2018-03-23T20:52:33.789Z,43.10
2018-03-23T20:55:01.647Z,43.38
2018-03-23T20:57:29.764Z,45.35
2018-03-23T20:59:57.625Z,43.33
2018-03-23T21:02:25.584Z,44.58
2018-03-23T21:04:53.459Z,43.25
2018-03-23T21:07:21.393Z,50.05
2018-03-23T21:09:49.435Z,43.72
2018-03-23T21:12:18.349Z,43.78
2018-03-23T21:14:46.407Z,43.55
2018-03-23T21:17:14.432Z,44.33
2018-03-23T21:19:42.403Z,43.90
2018-03-23T21:22:10.387Z,43.38
2018-03-23T21:24:38.431Z,43.53
2018-03-23T21:27:06.352Z,41.80
2018-03-23T21:29:34.338Z,41.07
2018-03-23T21:32:02.272Z,41.83
2018-03-23T21:34:30.927Z,41.97
2018-03-23T21:36:58.754Z,42.72
2018-03-23T21:39:26.547Z,42.70
2018-03-23T21:41:54.358Z,42.25
2018-03-23T21:44:22.148Z,42.15
2018-03-23T21:46:50.957Z,40.80
2018-03-23T21:49:18.987Z,41.78
2018-03-23T21:51:46.896Z,41.70
2018-03-23T21:54:14.714Z,41.65
2018-03-23T21:56:42.588Z,41.42
2018-03-23T21:59:10.416Z,41.03
2018-03-23T22:01:38.230Z,43.10
2018-03-23T22:04:06.007Z,41.58
2018-03-23T22:06:33.806Z,41.70
2018-03-23T22:09:01.591Z,41.45
2018-03-23T22:11:30.382Z,42.85
2018-03-23T22:13:58.974Z,42.42
2018-03-23T22:16:26.768Z,42.10
2018-03-23T22:18:54.575Z,43.67
2018-03-23T22:21:22.359Z,44.53
2018-03-23T22:23:50.901Z,43.95
2018-03-23T22:26:18.682Z,43.20
2018-03-23T22:28:46.435Z,42.78
2018-03-23T22:31:14.250Z,42.03
2018-03-23T22:33:42.016Z,41.60
2018-03-23T22:36:09.800Z,41.70
2018-03-23T22:38:37.644Z,42.38
2018-03-23T22:41:05.452Z,41.22
2018-03-23T22:43:33.198Z,41.53
2018-03-23T22:46:01.039Z,42.17
2018-03-23T22:48:28.808Z,42.35
2018-03-23T22:50:56.568Z,41.40
2018-03-23T22:53:24.333Z,43.13
2018-03-23T22:55:52.334Z,42.65
2018-03-23T22:58:20.505Z,43.90
2018-03-23T23:00:48.298Z,42.58
2018-03-23T23:03:17.015Z,43.65
2018-03-23T23:05:44.797Z,43.87
2018-03-23T23:08:12.558Z,42.67
2018-03-23T23:10:40.331Z,43.33
2018-03-23T23:13:08.150Z,42.58
2018-03-23T23:15:36.667Z,43.85
2018-03-23T23:18:04.460Z,43.17
2018-03-23T23:20:32.220Z,44.38
2018-03-23T23:23:00.016Z,43.42
2018-03-23T23:25:28.544Z,44.50
2018-03-23T23:27:56.335Z,44.40
2018-03-23T23:30:24.143Z,43.08
2018-03-23T23:32:52.656Z,43.00
2018-03-23T23:35:20.464Z,43.08
2018-03-23T23:37:48.238Z,43.17
2018-03-23T23:40:16.795Z,43.67
2018-03-23T23:42:44.591Z,43.00
2018-03-23T23:45:13.102Z,43.08
2018-03-23T23:47:40.875Z,43.10
2018-03-23T23:50:08.658Z,43.05
2018-03-23T23:52:36.417Z,42.65
2018-03-23T23:55:04.226Z,43.35
2018-03-23T23:57:32.846Z,43.05
